Have a Safe July 4th! 

Flight Track Log - Related Links

Times and Time Zones

All times are in EDT time to prevent confusion due to time zone crossing. See the SKW6418 flight status page for this flight to view local times or setup timezone preferences in your user account.

Time Position Orientation Groundspeed Altitude Reporting Facility
EDT Latitude Longitude Course Direction KTS MPH feet Rate Location/Type
Wed 10:32:09 PM 37.7478 -122.2978 50° Northeast 236 272 5,900  Level Oakland Center
Wed 10:33:10 PM 37.8100 -122.2456 34° Northeast 275 316 8,100 2,244 Climbing Oakland Center
Wed 10:34:12 PM 37.8683 -122.1461 53° Northeast 300 345 10,500 1,854 Climbing Oakland Center
Wed 10:35:13 PM 37.9231 -122.0578 52° Northeast 314 361 11,900 1,171 Climbing Oakland Center
Wed 10:36:00 PM 37.7850 -122.1472 53° Northeast  Level FlightAware Approximate
Wed 10:36:15 PM 37.9847 -121.9589 52° Northeast 350 403 12,900  Level Oakland Center
Wed 10:37:00 PM 37.8550 -122.0342 50° Northeast  Level FlightAware Approximate
Wed 10:37:16 PM 38.0494 -121.8536 52° Northeast 371 427 13,900  Level Oakland Center
Wed 10:38:17 PM 38.1192 -121.7408 52° Northeast 397 457 14,800 927 Climbing Oakland Center
Wed 10:39:19 PM 38.1889 -121.6278 52° Northeast 406 467 15,800 976 Climbing Oakland Center
Wed 10:40:20 PM 38.2575 -121.5106 53° Northeast 412 474 16,800 1,024 Climbing Oakland Center
Wed 10:41:22 PM 38.3072 -121.3678 66° East 412 474 17,900 1,024 Climbing Oakland Center
Wed 10:42:23 PM 38.3544 -121.2344 66° East 418 481 18,900 976 Climbing Oakland Center
Wed 10:43:25 PM 38.4125 -121.0739 65° Northeast 424 488 19,900 829 Climbing Oakland Center
Wed 10:44:26 PM 38.4619 -120.9372 65° Northeast 430 495 20,600 829 Climbing Oakland Center
Wed 10:45:28 PM 38.5111 -120.7989 66° East 432 497 21,600 1,220 Climbing Oakland Center
Wed 10:46:29 PM 38.5592 -120.6633 66° East 423 487 23,100 1,463 Climbing Oakland Center
Wed 10:47:31 PM 38.6058 -120.5331 65° Northeast 408 470 24,600 1,171 Climbing Oakland Center
Wed 10:48:32 PM 38.6686 -120.4167 55° Northeast 401 461 25,500 683 Climbing Oakland Center
Wed 10:49:34 PM 38.7328 -120.2950 56° Northeast 412 474 26,000 537 Climbing Oakland Center
Wed 10:50:35 PM 38.8064 -120.1400 59° Northeast 426 490 26,600 585 Climbing Oakland Center
Wed 10:51:37 PM 38.8600 -120.0019 63° Northeast 433 498 27,200 537 Climbing Oakland Center
Wed 10:52:38 PM 38.9064 -119.8567 68° East 442 509 27,700 492 Climbing Oakland Center
Wed 10:53:39 PM 38.9550 -119.7097 67° East 446 513 28,200 488 Climbing Oakland Center
Wed 10:54:41 PM 39.0031 -119.5644 67° East 445 512 28,700 488 Climbing Oakland Center
Wed 10:55:42 PM 39.0514 -119.4169 67° East 447 514 29,200 488 Climbing Oakland Center
Wed 10:56:44 PM 39.0994 -119.2697 67° East 447 514 29,700 488 Climbing Oakland Center
Wed 10:57:45 PM 39.1475 -119.1219 67° East 448 516 30,200 541 Climbing Oakland Center
Wed 10:58:46 PM 39.2031 -118.9500 67° East 446 513 30,800 537 Climbing Oakland Center
Wed 10:59:48 PM 39.2506 -118.8033 67° East 443 510 31,300 488 Climbing Oakland Center
Wed 11:00:49 PM 39.2972 -118.6556 68° East 445 512 31,800 488 Climbing Oakland Center
Wed 11:01:51 PM 39.3444 -118.5072 68° East 446 513 32,300 488 Climbing Oakland Center
Wed 11:02:52 PM 39.3894 -118.3672 67° East 445 512 32,800 341 Climbing Oakland Center
Wed 11:03:54 PM 39.4358 -118.2219 67° East 441 507 33,000 98 Climbing Oakland Center
Wed 11:04:55 PM 39.4911 -118.0425 68° East 448 516 33,000  Level Oakland Center
Wed 11:05:57 PM 39.5383 -117.8892 68° East 457 526 33,000  Level Oakland Center
Wed 11:06:58 PM 39.5869 -117.7328 68° East 466 536 33,000  Level Oakland Center
Wed 11:08:00 PM 39.6350 -117.5756 68° East 469 540 33,000  Level Oakland Center
Wed 11:09:02 PM 39.6839 -117.4186 68° East 470 541 33,000  Level Oakland Center
Wed 11:10:04 PM 39.7333 -117.2561 68° East 475 547 33,000  Level Oakland Center
Wed 11:11:05 PM 39.7861 -117.0783 69° East 474 545 33,000  Level Oakland Center
Wed 11:12:06 PM 39.8319 -116.9261 69° East 475 547 33,000  Level Oakland Center
Wed 11:13:08 PM 39.8775 -116.7722 69° East 477 549 33,000  Level Oakland Center
Wed 11:14:09 PM 39.9311 -116.5931 69° East 479 551 33,000  Level Oakland Center
Wed 11:15:11 PM 39.9756 -116.4392 69° East 478 550 33,000  Level Oakland Center
Wed 11:16:12 PM 40.0292 -116.2592 69° East 479 551 33,000  Level Oakland Center
Wed 11:17:13 PM 40.0739 -116.1033 69° East 481 554 33,000  Level Oakland Center
Wed 11:18:17 PM 40.1283 -115.9211 69° East 480 552 33,000  Level Salt Lake Center
Wed 11:19:18 PM 40.1736 -115.7661 69° East 479 551 33,000  Level Salt Lake Center
Wed 11:20:20 PM 40.2253 -115.5853 69° East 477 549 33,000  Level Salt Lake Center
Wed 11:21:21 PM 40.2608 -115.4250 74° East 478 550 33,000  Level Salt Lake Center
Wed 11:22:23 PM 40.2900 -115.2628 77° East 478 550 33,000  Level Salt Lake Center
Wed 11:23:25 PM 40.3269 -115.0733 76° East 481 554 33,000  Level Salt Lake Center
Wed 11:24:26 PM 40.3575 -114.9103 76° East 483 556 33,000  Level Salt Lake Center
Wed 11:25:28 PM 40.3883 -114.7444 76° East 480 552 33,000  Level Salt Lake Center
Wed 11:26:29 PM 40.4258 -114.5417 76° East 478 550 33,000  Level Salt Lake Center
Wed 11:27:31 PM 40.4564 -114.3717 77° East 480 552 33,000  Level Salt Lake Center
Wed 11:28:32 PM 40.4883 -114.2036 76° East 476 548 33,000  Level Salt Lake Center
Wed 11:29:34 PM 40.5192 -114.0347 76° East 477 549 33,000 -683 Level Salt Lake Center
Wed 11:30:35 PM 40.5494 -113.8628 77° East 482 555 31,600 -2,000 Descending Salt Lake Center
Wed 11:31:37 PM 40.5825 -113.6789 77° East 513 590 28,900 -2,634 Descending Salt Lake Center
Wed 11:32:38 PM 40.6128 -113.5064 77° East 487 560 26,200 -2,537 Descending Salt Lake Center
Wed 11:33:40 PM 40.6419 -113.3411 77° East 468 539 23,700 -2,683 Descending Salt Lake Center
Wed 11:34:41 PM 40.6758 -113.1342 78° East 483 556 20,700 -2,705 Descending Salt Lake Center
Wed 11:35:42 PM 40.7053 -112.9653 77° East 476 548 18,200 -2,000 Descending Salt Lake Center
Wed 11:36:32 PM 40.7267 -112.8375 78° East 459 528 17,000 -783 Descending Salt Lake Center
Wed 11:37:14 PM 40.7242 -112.7225 92° East 455 524 17,000 -324 Level Salt Lake Center
Wed 11:37:46 PM 40.7219 -112.6372 92° East 453 521 16,600 -1,419 Descending Salt Lake Center
Wed 11:38:47 PM 40.7294 -112.4750 86° East 449 517 14,800 -1,967 Descending Salt Lake Center
Wed 11:39:48 PM 40.7550 -112.3236 77° East 427 491 12,600 -1,366 Descending Salt Lake Center
Wed 11:40:50 PM 40.7642 -112.1792 85° East 395 455 12,000 -484 Descending Salt Lake Center
Wed 11:41:52 PM 40.7131 -112.0906 127° Southeast 297 342 11,600 -585 Descending Salt Lake Center
Wed 11:42:53 PM 40.6358 -112.0706 169° South 226 260 10,800 -787 Descending Salt Lake Center

Login

Don't have an account? Register now (free) for customized features, flight alerts, and more!